createdAt,value
2022-10-08T00:00:06.362Z,3.38
2022-10-08T00:02:40.379Z,3.10
2022-10-08T00:05:08.650Z,3.30
2022-10-08T00:07:36.747Z,2.83
2022-10-08T00:10:06.238Z,3.83
2022-10-08T00:12:33.888Z,3.17
2022-10-08T00:15:01.560Z,2.63
2022-10-08T00:17:29.244Z,4.20
2022-10-08T00:19:58.239Z,2.85
2022-10-08T00:22:25.924Z,2.80
2022-10-08T00:24:54.350Z,3.53
2022-10-08T00:27:23.812Z,3.53
2022-10-08T00:29:52.720Z,3.20
2022-10-08T00:32:20.732Z,2.88
2022-10-08T00:34:48.379Z,3.60
2022-10-08T00:37:17.356Z,3.00
2022-10-08T00:39:45.517Z,4.40
2022-10-08T00:42:13.374Z,3.55
2022-10-08T00:44:57.302Z,3.83
2022-10-08T00:47:35.700Z,3.70
2022-10-08T00:50:06.104Z,3.63
2022-10-08T00:52:37.063Z,4.28
2022-10-08T00:55:06.373Z,4.10
2022-10-08T00:57:35.186Z,4.15
2022-10-08T01:00:03.660Z,4.40
2022-10-08T01:02:31.382Z,4.53
2022-10-08T01:04:59.108Z,5.10
2022-10-08T01:07:28.926Z,4.97
2022-10-08T01:10:01.326Z,5.07
2022-10-08T01:12:34.677Z,5.15
2022-10-08T01:15:06.574Z,5.32
2022-10-08T01:17:37.022Z,5.20
2022-10-08T01:20:20.890Z,5.53
2022-10-08T01:23:00.277Z,5.57
2022-10-08T01:25:36.112Z,6.15
2022-10-08T01:28:08.523Z,5.88
2022-10-08T01:30:36.671Z,6.10
2022-10-08T01:33:12.242Z,6.80
2022-10-08T01:35:43.640Z,6.60
2022-10-08T01:38:11.520Z,7.25
2022-10-08T01:40:39.168Z,6.95
2022-10-08T01:43:09.160Z,7.80
2022-10-08T01:45:38.572Z,6.97
2022-10-08T01:48:07.907Z,7.32
2022-10-08T01:50:37.165Z,7.72
2022-10-08T01:53:05.829Z,7.53
2022-10-08T01:55:35.939Z,8.10
2022-10-08T01:58:05.363Z,8.50
2022-10-08T02:00:34.782Z,8.40
2022-10-08T02:03:02.531Z,8.50
2022-10-08T02:05:32.955Z,8.70
2022-10-08T02:08:01.408Z,8.60
2022-10-08T02:10:29.088Z,8.48
2022-10-08T02:12:56.759Z,8.25
2022-10-08T02:15:28.814Z,8.43
2022-10-08T02:17:58.927Z,8.68
2022-10-08T02:20:29.268Z,8.40
2022-10-08T02:22:58.925Z,8.55
2022-10-08T02:25:30.269Z,8.40
2022-10-08T02:28:04.306Z,8.75
2022-10-08T02:30:35.840Z,8.20
2022-10-08T02:33:06.390Z,8.57
2022-10-08T02:35:37.213Z,8.20
2022-10-08T02:38:07.416Z,8.50
2022-10-08T02:40:35.055Z,8.20
2022-10-08T02:43:05.226Z,8.35
2022-10-08T02:45:34.236Z,8.48
2022-10-08T02:48:05.228Z,7.47
2022-10-08T02:50:32.870Z,7.88
2022-10-08T02:53:00.498Z,7.85
2022-10-08T02:55:31.841Z,7.57
2022-10-08T02:58:01.463Z,7.18
2022-10-08T03:00:34.411Z,7.30
2022-10-08T03:03:09.244Z,7.15
2022-10-08T03:05:38.077Z,6.95
2022-10-08T03:08:06.010Z,6.80
2022-10-08T03:10:34.632Z,6.38
2022-10-08T03:13:02.316Z,6.38
2022-10-08T03:15:30.466Z,6.10
2022-10-08T03:17:58.088Z,6.05
2022-10-08T03:20:27.302Z,6.00
2022-10-08T03:22:55.129Z,5.70
2022-10-08T03:25:22.786Z,5.30
2022-10-08T03:27:51.116Z,5.40
2022-10-08T03:30:18.805Z,5.00
2022-10-08T03:32:46.719Z,4.90
2022-10-08T03:35:14.737Z,4.97
2022-10-08T03:37:43.710Z,4.90
2022-10-08T03:40:11.985Z,4.60
2022-10-08T03:42:39.671Z,4.47
2022-10-08T03:45:08.137Z,4.40
2022-10-08T03:47:35.788Z,4.40
2022-10-08T03:50:03.493Z,4.07
2022-10-08T03:52:31.239Z,3.88
2022-10-08T03:55:00.230Z,4.00
2022-10-08T03:57:27.867Z,3.60
2022-10-08T03:59:55.533Z,3.55
2022-10-08T04:02:23.352Z,3.83
2022-10-08T04:04:51.065Z,3.35
2022-10-08T04:07:18.724Z,3.35
2022-10-08T04:09:46.380Z,3.42
2022-10-08T04:12:15.336Z,3.22
2022-10-08T04:14:42.979Z,3.00
2022-10-08T04:17:10.687Z,3.03
2022-10-08T04:19:38.341Z,2.88
2022-10-08T04:22:06.001Z,2.50
2022-10-08T04:24:33.680Z,2.83
2022-10-08T04:27:01.328Z,2.38
2022-10-08T04:29:30.291Z,2.47
2022-10-08T04:31:57.971Z,2.13
2022-10-08T04:34:25.644Z,1.92
2022-10-08T04:36:53.284Z,2.22
2022-10-08T04:39:20.917Z,2.35
2022-10-08T04:41:48.549Z,2.30
2022-10-08T04:44:16.176Z,2.00
2022-10-08T04:46:45.179Z,2.10
2022-10-08T04:49:13.020Z,2.15
2022-10-08T04:51:40.648Z,1.70
2022-10-08T04:54:08.305Z,2.00
2022-10-08T04:56:36.500Z,2.25
2022-10-08T04:59:04.657Z,1.73
2022-10-08T05:01:32.360Z,1.65
2022-10-08T05:04:01.391Z,2.42
2022-10-08T05:06:29.940Z,1.92
2022-10-08T05:08:57.918Z,2.90
2022-10-08T05:11:25.930Z,1.83
2022-10-08T05:13:54.205Z,1.38
2022-10-08T05:16:22.089Z,1.50
2022-10-08T05:18:50.647Z,2.30
2022-10-08T05:21:21.157Z,2.28
2022-10-08T05:23:48.861Z,1.15
2022-10-08T05:26:17.266Z,1.92
2022-10-08T05:28:46.921Z,2.28
2022-10-08T05:31:14.901Z,1.83
2022-10-08T05:33:42.604Z,1.20
2022-10-08T05:36:15.860Z,1.38
2022-10-08T05:38:44.931Z,2.42
2022-10-08T05:41:13.902Z,1.83
2022-10-08T05:43:41.740Z,1.40
2022-10-08T05:46:09.648Z,1.58
2022-10-08T05:48:37.509Z,1.58
2022-10-08T05:51:06.343Z,1.98
2022-10-08T05:53:36.047Z,2.55
2022-10-08T05:56:05.919Z,1.10
2022-10-08T05:58:33.933Z,1.35
2022-10-08T06:01:02.178Z,1.65
2022-10-08T06:03:29.896Z,1.70
2022-10-08T06:05:58.451Z,1.45
2022-10-08T06:08:26.172Z,1.05
2022-10-08T06:10:54.135Z,1.10
2022-10-08T06:13:23.385Z,1.10
2022-10-08T06:15:57.339Z,1.30
2022-10-08T06:18:25.559Z,1.45
2022-10-08T06:20:53.257Z,1.67
2022-10-08T06:23:21.396Z,1.20
2022-10-08T06:25:49.131Z,1.30
2022-10-08T06:28:17.048Z,2.15
2022-10-08T06:30:46.063Z,1.55
2022-10-08T06:33:16.205Z,1.58
2022-10-08T06:35:43.892Z,1.10
2022-10-08T06:38:11.540Z,1.38
2022-10-08T06:40:40.773Z,1.30
2022-10-08T06:43:08.510Z,1.30
2022-10-08T06:45:39.240Z,1.50
2022-10-08T06:48:08.319Z,1.48
2022-10-08T06:50:36.327Z,1.35
2022-10-08T06:53:04.272Z,1.27
2022-10-08T06:55:32.619Z,1.10
2022-10-08T06:58:01.032Z,1.15
2022-10-08T07:00:28.766Z,1.58
2022-10-08T07:02:57.418Z,1.50
2022-10-08T07:05:26.450Z,1.40
2022-10-08T07:07:54.132Z,1.30
2022-10-08T07:10:21.767Z,1.50
2022-10-08T07:12:50.052Z,1.20
2022-10-08T07:15:17.934Z,1.20
2022-10-08T07:17:45.665Z,1.45
2022-10-08T07:20:13.344Z,1.23
2022-10-08T07:22:42.415Z,1.90
2022-10-08T07:25:10.309Z,1.88
2022-10-08T07:27:41.520Z,1.10
2022-10-08T07:30:12.586Z,1.90
2022-10-08T07:32:40.338Z,1.30
2022-10-08T07:35:09.755Z,1.23
2022-10-08T07:37:37.420Z,1.10
2022-10-08T07:40:07.648Z,1.25
2022-10-08T07:42:35.391Z,1.55
2022-10-08T07:45:03.090Z,1.33
2022-10-08T07:47:30.723Z,1.38
2022-10-08T07:49:58.520Z,1.15
2022-10-08T07:52:26.284Z,1.50
2022-10-08T07:54:53.971Z,1.55
2022-10-08T07:57:23.201Z,1.30
2022-10-08T07:59:50.869Z,1.00
2022-10-08T08:02:18.577Z,1.58
2022-10-08T08:04:46.272Z,1.33
2022-10-08T08:07:14.182Z,1.35
2022-10-08T08:09:41.858Z,1.08
2022-10-08T08:12:09.503Z,1.05
2022-10-08T08:14:38.496Z,1.50
2022-10-08T08:17:06.159Z,1.10
2022-10-08T08:19:33.900Z,1.48
2022-10-08T08:22:01.787Z,1.15
2022-10-08T08:24:29.460Z,1.73
2022-10-08T08:26:57.893Z,2.13
2022-10-08T08:29:25.679Z,2.67
2022-10-08T08:31:54.720Z,3.10
2022-10-08T08:34:23.442Z,7.65
2022-10-08T08:36:53.519Z,6.13
2022-10-08T08:39:22.147Z,18.95
2022-10-08T08:42:03.898Z,15.93
2022-10-08T08:44:33.248Z,23.95
2022-10-08T08:47:05.168Z,18.63
2022-10-08T08:49:35.181Z,27.52
2022-10-08T08:52:03.311Z,23.48
2022-10-08T08:54:31.118Z,25.13
2022-10-08T08:57:03.036Z,16.67
2022-10-08T08:59:32.958Z,14.35
2022-10-08T09:02:04.752Z,15.38
2022-10-08T09:04:41.660Z,15.50
2022-10-08T09:07:13.610Z,8.90
2022-10-08T09:09:43.068Z,21.65
2022-10-08T09:12:20.471Z,7.65
2022-10-08T09:14:51.694Z,12.80
2022-10-08T09:17:21.687Z,13.02
2022-10-08T09:19:49.892Z,9.43
2022-10-08T09:22:22.720Z,20.92
2022-10-08T09:24:52.995Z,13.80
2022-10-08T09:27:20.888Z,14.55
2022-10-08T09:29:48.572Z,14.18
2022-10-08T09:32:18.065Z,13.98
2022-10-08T09:34:48.266Z,13.30
2022-10-08T09:37:23.495Z,15.77
2022-10-08T09:40:19.266Z,11.25
2022-10-08T09:42:48.522Z,9.70
2022-10-08T09:45:35.156Z,10.02
2022-10-08T09:48:20.025Z,13.63
2022-10-08T09:51:00.567Z,8.13
2022-10-08T09:53:30.182Z,14.43
2022-10-08T09:55:59.494Z,16.52
2022-10-08T09:58:27.214Z,12.57
2022-10-08T10:01:00.036Z,7.85
2022-10-08T10:03:28.212Z,9.88
2022-10-08T10:05:58.909Z,9.40
2022-10-08T10:08:48.671Z,8.23
2022-10-08T10:11:20.931Z,8.30
2022-10-08T10:13:48.959Z,9.40
2022-10-08T10:16:18.066Z,14.25
2022-10-08T10:18:50.723Z,9.00
2022-10-08T10:21:22.266Z,8.80
2022-10-08T10:23:51.188Z,8.35
2022-10-08T10:26:21.692Z,11.50
2022-10-08T10:28:51.589Z,8.70
2022-10-08T10:31:20.257Z,9.77
2022-10-08T10:33:50.727Z,8.52
2022-10-08T10:36:19.715Z,7.75
2022-10-08T10:38:50.688Z,11.55
2022-10-08T10:41:21.006Z,10.75
2022-10-08T10:43:49.160Z,11.68
2022-10-08T10:46:23.066Z,9.45
2022-10-08T10:48:50.929Z,14.48
2022-10-08T10:51:51.037Z,9.15
2022-10-08T10:54:26.883Z,13.38
2022-10-08T10:56:56.275Z,8.98
2022-10-08T10:59:44.829Z,8.93
2022-10-08T11:02:17.145Z,12.52
2022-10-08T11:04:47.882Z,10.70
2022-10-08T11:07:27.942Z,21.17
2022-10-08T11:09:57.480Z,15.25
2022-10-08T11:12:28.869Z,13.48
2022-10-08T11:15:00.651Z,13.25
2022-10-08T11:17:36.064Z,16.27
2022-10-08T11:20:12.640Z,16.60
2022-10-08T11:22:45.164Z,13.75
2022-10-08T11:25:20.765Z,10.00
2022-10-08T11:27:57.355Z,22.83
2022-10-08T11:30:27.755Z,18.48
2022-10-08T11:32:56.886Z,15.55
2022-10-08T11:35:28.417Z,9.45
2022-10-08T11:38:02.452Z,12.25
2022-10-08T11:40:32.839Z,15.35
2022-10-08T11:43:05.555Z,19.40
2022-10-08T11:45:37.834Z,9.98
2022-10-08T11:48:25.162Z,6.47
2022-10-08T11:50:52.847Z,7.00
2022-10-08T11:53:22.300Z,6.65
2022-10-08T11:55:52.063Z,9.38
2022-10-08T11:58:23.662Z,10.30
2022-10-08T12:00:53.128Z,7.10
2022-10-08T12:03:23.406Z,6.13
2022-10-08T12:05:53.053Z,6.97
2022-10-08T12:08:49.726Z,9.48
2022-10-08T12:11:54.368Z,11.75
2022-10-08T12:14:46.513Z,8.55
2022-10-08T12:17:14.273Z,3.95
2022-10-08T12:20:01.295Z,8.73
2022-10-08T12:22:45.996Z,10.93
2022-10-08T12:25:40.088Z,8.30
2022-10-08T12:28:47.101Z,6.85
2022-10-08T12:31:27.331Z,8.93
2022-10-08T12:33:59.012Z,7.88
2022-10-08T12:36:36.181Z,9.80
2022-10-08T12:39:04.452Z,13.75
2022-10-08T12:41:35.654Z,9.05
2022-10-08T12:44:05.178Z,9.15
2022-10-08T12:46:36.973Z,10.45
2022-10-08T12:49:06.818Z,8.48
2022-10-08T12:51:38.433Z,11.40
2022-10-08T12:54:06.336Z,13.40
2022-10-08T12:56:35.416Z,11.10
2022-10-08T12:59:04.283Z,9.43
2022-10-08T13:01:32.046Z,10.90
2022-10-08T13:04:10.531Z,13.05
2022-10-08T13:06:38.231Z,11.65
2022-10-08T13:09:26.983Z,9.07
2022-10-08T13:12:00.658Z,8.60
2022-10-08T13:14:31.151Z,10.15
2022-10-08T13:16:59.082Z,7.55
2022-10-08T13:19:29.446Z,9.38
2022-10-08T13:21:57.568Z,10.10
2022-10-08T13:24:41.448Z,12.07
2022-10-08T13:27:24.236Z,8.50
2022-10-08T13:29:51.939Z,9.65
2022-10-08T13:32:21.327Z,9.43
2022-10-08T13:34:50.629Z,9.27
2022-10-08T13:37:26.382Z,7.88
2022-10-08T13:39:54.762Z,9.10
2022-10-08T13:42:24.617Z,8.32
2022-10-08T13:44:52.480Z,12.02
2022-10-08T13:47:21.448Z,10.10
2022-10-08T13:49:49.405Z,10.88
2022-10-08T13:52:17.603Z,28.77
2022-10-08T13:54:45.415Z,20.40
2022-10-08T13:57:13.304Z,21.60
2022-10-08T13:59:42.406Z,24.13
2022-10-08T14:02:11.781Z,31.75
2022-10-08T14:04:39.513Z,13.95
2022-10-08T14:07:07.308Z,17.23
2022-10-08T14:09:34.968Z,8.25
2022-10-08T14:12:05.172Z,5.13
2022-10-08T14:14:32.917Z,9.93
2022-10-08T14:17:02.212Z,18.25
2022-10-08T14:19:29.978Z,17.90
2022-10-08T14:21:57.646Z,9.40
2022-10-08T14:24:25.329Z,16.80
2022-10-08T14:26:53.392Z,8.75
2022-10-08T14:29:21.051Z,9.52
2022-10-08T14:31:48.964Z,8.00
2022-10-08T14:34:18.017Z,9.55
2022-10-08T14:36:45.752Z,9.35
2022-10-08T14:39:13.441Z,8.05
2022-10-08T14:41:42.956Z,10.15
2022-10-08T14:44:12.010Z,9.35
2022-10-08T14:46:39.777Z,11.00
2022-10-08T14:49:07.629Z,9.50
2022-10-08T14:51:38.702Z,10.27
2022-10-08T14:54:07.023Z,11.48
2022-10-08T14:56:42.691Z,14.68
2022-10-08T14:59:10.411Z,17.17
2022-10-08T15:01:38.231Z,15.93
2022-10-08T15:04:06.192Z,9.00
2022-10-08T15:06:33.998Z,9.02
2022-10-08T15:09:02.974Z,5.88
2022-10-08T15:11:30.694Z,5.38
2022-10-08T15:13:59.171Z,7.75
2022-10-08T15:16:27.022Z,7.55
2022-10-08T15:18:54.700Z,14.95
2022-10-08T15:21:22.401Z,4.30
2022-10-08T15:23:50.284Z,5.20
2022-10-08T15:26:19.410Z,4.97
2022-10-08T15:28:47.272Z,5.53
2022-10-08T15:31:16.453Z,2.72
2022-10-08T15:33:44.956Z,3.65
2022-10-08T15:36:19.749Z,6.57
2022-10-08T15:38:47.655Z,8.60
2022-10-08T15:41:17.315Z,6.85
2022-10-08T15:43:46.731Z,10.23
2022-10-08T15:46:16.593Z,10.77
2022-10-08T15:48:45.739Z,10.88
2022-10-08T15:51:14.997Z,11.60
2022-10-08T15:53:42.664Z,18.00
2022-10-08T15:56:11.775Z,12.77
2022-10-08T15:58:50.381Z,11.60
2022-10-08T16:01:21.281Z,9.77
2022-10-08T16:03:49.712Z,11.95
2022-10-08T16:06:18.584Z,12.50
2022-10-08T16:08:46.270Z,9.50
2022-10-08T16:11:14.965Z,10.38
2022-10-08T16:13:42.656Z,8.57
2022-10-08T16:16:14.791Z,11.32
2022-10-08T16:18:44.337Z,9.65
2022-10-08T16:21:12.580Z,11.15
2022-10-08T16:23:40.589Z,9.45
2022-10-08T16:26:09.640Z,9.82
2022-10-08T16:28:38.168Z,10.85
2022-10-08T16:31:06.231Z,6.18
2022-10-08T16:33:34.127Z,9.10
2022-10-08T16:36:04.510Z,8.95
2022-10-08T16:38:32.907Z,10.60
2022-10-08T16:41:11.735Z,5.55
2022-10-08T16:43:39.439Z,9.00
2022-10-08T16:46:16.470Z,6.68
2022-10-08T16:48:44.429Z,6.80
2022-10-08T16:51:13.402Z,6.97
2022-10-08T16:53:41.126Z,9.05
2022-10-08T16:56:08.805Z,5.80
2022-10-08T16:58:36.493Z,5.97
2022-10-08T17:01:07.123Z,6.68
2022-10-08T17:03:34.963Z,4.88
2022-10-08T17:06:02.682Z,5.93
2022-10-08T17:08:31.721Z,6.07
2022-10-08T17:11:03.440Z,8.68
2022-10-08T17:13:31.130Z,5.95
2022-10-08T17:15:59.895Z,7.50
2022-10-08T17:18:27.790Z,4.65
2022-10-08T17:20:56.696Z,5.57
2022-10-08T17:23:24.584Z,7.28
2022-10-08T17:25:57.769Z,7.00
2022-10-08T17:28:28.199Z,6.57
2022-10-08T17:30:55.975Z,7.32
2022-10-08T17:33:23.970Z,4.43
2022-10-08T17:35:59.832Z,3.92
2022-10-08T17:38:27.499Z,4.07
2022-10-08T17:40:55.153Z,5.57
2022-10-08T17:43:24.209Z,4.72
2022-10-08T17:45:51.920Z,4.40
2022-10-08T17:48:19.696Z,4.68
2022-10-08T17:50:47.356Z,4.65
2022-10-08T17:53:14.992Z,5.35
2022-10-08T17:55:42.667Z,4.00
2022-10-08T17:58:10.317Z,5.63
2022-10-08T18:00:39.334Z,4.43
2022-10-08T18:03:07.826Z,4.72
2022-10-08T18:05:35.577Z,3.97
2022-10-08T18:08:03.272Z,3.17
2022-10-08T18:10:30.925Z,3.42
2022-10-08T18:12:58.610Z,4.45
2022-10-08T18:15:26.347Z,4.00
2022-10-08T18:17:55.441Z,5.38
2022-10-08T18:20:23.128Z,5.32
2022-10-08T18:22:50.964Z,4.00
2022-10-08T18:25:18.725Z,3.33
2022-10-08T18:27:46.381Z,4.00
2022-10-08T18:30:14.340Z,2.90
2022-10-08T18:32:42.284Z,4.38
2022-10-08T18:35:11.769Z,4.97
2022-10-08T18:37:39.430Z,4.35
2022-10-08T18:40:07.735Z,2.67
2022-10-08T18:42:35.380Z,4.40
2022-10-08T18:45:03.105Z,3.63
2022-10-08T18:47:30.776Z,4.07
2022-10-08T18:49:58.549Z,3.03
2022-10-08T18:52:27.567Z,2.38
2022-10-08T18:54:55.255Z,3.40
2022-10-08T18:57:23.080Z,3.63
2022-10-08T18:59:50.726Z,3.20
2022-10-08T19:02:18.529Z,3.97
2022-10-08T19:04:46.289Z,5.57
2022-10-08T19:07:13.965Z,3.05
2022-10-08T19:09:43.043Z,2.97
2022-10-08T19:12:10.667Z,3.05
2022-10-08T19:14:38.353Z,3.08
2022-10-08T19:17:06.042Z,2.35
2022-10-08T19:19:33.730Z,3.83
2022-10-08T19:22:01.665Z,2.80
2022-10-08T19:24:29.727Z,2.72
2022-10-08T19:26:58.884Z,4.43
2022-10-08T19:29:29.008Z,2.53
2022-10-08T19:31:56.804Z,2.42
2022-10-08T19:34:25.577Z,3.70
2022-10-08T19:36:53.296Z,2.78
2022-10-08T19:39:22.106Z,3.10
2022-10-08T19:41:49.851Z,2.75
2022-10-08T19:44:19.062Z,3.97
2022-10-08T19:46:46.898Z,2.67
2022-10-08T19:49:14.809Z,3.13
2022-10-08T19:51:42.585Z,2.17
2022-10-08T19:54:10.296Z,3.20
2022-10-08T19:56:38.048Z,2.67
2022-10-08T19:59:05.741Z,2.65
2022-10-08T20:01:35.996Z,3.35
2022-10-08T20:04:04.975Z,2.65
2022-10-08T20:06:33.361Z,2.00
2022-10-08T20:09:02.073Z,2.45
2022-10-08T20:11:30.034Z,3.10
2022-10-08T20:13:57.792Z,1.95
2022-10-08T20:16:26.252Z,3.42
2022-10-08T20:18:55.995Z,3.30
2022-10-08T20:21:23.721Z,2.63
2022-10-08T20:23:51.358Z,2.33
2022-10-08T20:26:20.077Z,5.13
2022-10-08T20:28:49.021Z,2.67
2022-10-08T20:31:17.932Z,2.17
2022-10-08T20:33:45.960Z,2.75
2022-10-08T20:36:16.359Z,2.63
2022-10-08T20:38:44.302Z,3.75
2022-10-08T20:41:11.954Z,1.63
2022-10-08T20:43:39.708Z,2.63
2022-10-08T20:46:08.578Z,2.90
2022-10-08T20:48:36.801Z,2.47
2022-10-08T20:51:04.889Z,3.08
2022-10-08T20:53:33.891Z,2.15
2022-10-08T20:56:04.627Z,2.35
2022-10-08T20:58:32.423Z,1.52
2022-10-08T21:01:04.955Z,1.95
2022-10-08T21:03:32.717Z,2.45
2022-10-08T21:06:00.838Z,1.35
2022-10-08T21:08:28.500Z,2.25
2022-10-08T21:11:00.888Z,1.75
2022-10-08T21:13:28.660Z,2.28
2022-10-08T21:16:03.128Z,2.25
2022-10-08T21:18:30.855Z,2.38
2022-10-08T21:21:02.108Z,3.08
2022-10-08T21:23:29.745Z,1.50
2022-10-08T21:26:08.235Z,4.30
2022-10-08T21:28:36.065Z,2.30
2022-10-08T21:31:04.472Z,1.90
2022-10-08T21:33:34.859Z,1.45
2022-10-08T21:36:02.727Z,1.77
2022-10-08T21:38:30.360Z,1.55
2022-10-08T21:40:58.244Z,1.90
2022-10-08T21:43:27.337Z,1.92
2022-10-08T21:45:56.260Z,1.65
2022-10-08T21:48:24.079Z,2.15
2022-10-08T21:50:58.918Z,1.75
2022-10-08T21:53:26.652Z,1.50
2022-10-08T21:55:55.509Z,2.45
2022-10-08T21:58:23.240Z,1.85
2022-10-08T22:00:52.337Z,1.92
2022-10-08T22:03:20.092Z,2.55
2022-10-08T22:05:52.236Z,1.60
2022-10-08T22:08:19.920Z,1.40
2022-10-08T22:10:47.571Z,1.90
2022-10-08T22:13:15.271Z,1.65
2022-10-08T22:15:52.908Z,1.90
2022-10-08T22:18:20.746Z,1.45
2022-10-08T22:20:48.394Z,1.42
2022-10-08T22:23:16.226Z,1.58
2022-10-08T22:25:44.233Z,1.77
2022-10-08T22:28:11.923Z,2.38
2022-10-08T22:30:39.587Z,1.23
2022-10-08T22:33:08.588Z,1.58
2022-10-08T22:35:36.258Z,2.05
2022-10-08T22:38:03.936Z,1.98
2022-10-08T22:40:31.858Z,2.33
2022-10-08T22:42:59.507Z,3.05
2022-10-08T22:45:27.180Z,1.48
2022-10-08T22:47:54.914Z,1.30
2022-10-08T22:50:23.890Z,1.88
2022-10-08T22:52:51.568Z,2.00
2022-10-08T22:55:19.230Z,2.00
2022-10-08T22:57:46.941Z,1.55
2022-10-08T23:00:15.683Z,2.00
2022-10-08T23:02:43.360Z,3.38
2022-10-08T23:05:11.020Z,1.80
2022-10-08T23:07:39.992Z,2.72
2022-10-08T23:10:08.383Z,1.58
2022-10-08T23:12:36.063Z,1.50
2022-10-08T23:15:03.940Z,1.45
2022-10-08T23:17:31.589Z,1.88
2022-10-08T23:19:59.261Z,1.85
2022-10-08T23:22:28.401Z,1.65
2022-10-08T23:24:57.369Z,1.63
2022-10-08T23:27:25.094Z,1.60
2022-10-08T23:29:52.796Z,3.30
2022-10-08T23:32:20.457Z,1.35
2022-10-08T23:34:48.153Z,1.70
2022-10-08T23:37:15.832Z,2.25
2022-10-08T23:39:43.528Z,1.58
2022-10-08T23:42:12.500Z,1.73
2022-10-08T23:44:40.170Z,1.38
2022-10-08T23:47:07.896Z,2.17
2022-10-08T23:49:35.573Z,1.75
2022-10-08T23:52:03.220Z,1.58
2022-10-08T23:54:30.896Z,1.63
2022-10-08T23:56:58.816Z,1.45
2022-10-08T23:59:27.783Z,1.30
